createdAt,value
2022-12-23T00:00:45.879Z,1.70
2022-12-23T00:03:13.448Z,1.90
2022-12-23T00:05:41.479Z,2.00
2022-12-23T00:08:08.836Z,2.00
2022-12-23T00:10:40.192Z,2.00
2022-12-23T00:13:27.461Z,2.00
2022-12-23T00:16:09.168Z,1.80
2022-12-23T00:18:37.390Z,2.10
2022-12-23T00:21:11.003Z,2.20
2022-12-23T00:23:41.724Z,2.30
2022-12-23T00:26:18.465Z,2.30
2022-12-23T00:28:46.124Z,2.30
2022-12-23T00:31:14.189Z,2.10
2022-12-23T00:33:44.189Z,2.10
2022-12-23T00:36:13.075Z,2.10
2022-12-23T00:38:59.816Z,2.20
2022-12-23T00:41:45.647Z,2.20
2022-12-23T00:44:13.153Z,2.20
2022-12-23T00:46:40.366Z,2.00
2022-12-23T00:49:26.747Z,1.80
2022-12-23T00:51:53.987Z,1.70
2022-12-23T00:54:21.177Z,1.70
2022-12-23T00:56:48.376Z,1.70
2022-12-23T00:59:15.646Z,1.60
2022-12-23T01:02:01.499Z,1.50
2022-12-23T01:04:47.200Z,1.50
2022-12-23T01:07:14.577Z,1.40
2022-12-23T01:09:41.751Z,1.30
2022-12-23T01:12:09.429Z,1.30
2022-12-23T01:14:36.741Z,1.20
2022-12-23T01:17:05.506Z,1.20
2022-12-23T01:19:32.708Z,1.10
2022-12-23T01:21:59.881Z,1.10
2022-12-23T01:24:31.694Z,1.10
2022-12-23T01:27:00.657Z,1.10
2022-12-23T01:29:29.085Z,0.90
2022-12-23T01:31:56.482Z,0.90
2022-12-23T01:34:23.889Z,1.00
2022-12-23T01:36:51.503Z,0.80
2022-12-23T01:39:18.751Z,0.70
2022-12-23T01:42:04.308Z,0.70
2022-12-23T01:44:51.502Z,0.70
2022-12-23T01:47:44.861Z,0.70
2022-12-23T01:50:21.907Z,0.80
2022-12-23T01:53:02.957Z,0.80
2022-12-23T01:55:45.733Z,0.60
2022-12-23T01:58:27.647Z,0.60
2022-12-23T02:01:17.096Z,0.70
2022-12-23T02:03:46.316Z,0.80
2022-12-23T02:06:46.035Z,0.80
2022-12-23T02:09:22.181Z,0.80
2022-12-23T02:12:26.896Z,0.90
2022-12-23T02:15:40.214Z,0.90
2022-12-23T02:18:18.966Z,0.90
2022-12-23T02:20:52.164Z,0.90
2022-12-23T02:23:38.329Z,0.70
2022-12-23T02:26:27.463Z,0.60
2022-12-23T02:29:36.648Z,0.50
2022-12-23T02:32:13.714Z,0.50
2022-12-23T02:34:55.946Z,0.60
2022-12-23T02:37:44.607Z,0.60
2022-12-23T02:40:48.836Z,0.60
2022-12-23T02:43:30.061Z,0.60
2022-12-23T02:46:09.431Z,0.80
2022-12-23T02:49:04.107Z,0.80
2022-12-23T02:51:36.778Z,0.90
2022-12-23T02:54:09.014Z,0.90
2022-12-23T02:56:39.845Z,0.90
2022-12-23T02:59:15.844Z,0.80
2022-12-23T03:01:45.287Z,0.80
2022-12-23T03:04:12.561Z,0.70
2022-12-23T03:06:42.792Z,0.70
2022-12-23T03:09:15.053Z,0.80
2022-12-23T03:11:56.435Z,0.80
2022-12-23T03:14:48.721Z,0.90
2022-12-23T03:17:35.472Z,0.90
2022-12-23T03:20:21.018Z,0.90
2022-12-23T03:23:12.291Z,0.90
2022-12-23T03:26:03.313Z,0.80
2022-12-23T03:28:39.547Z,0.90
2022-12-23T03:31:11.937Z,0.90
2022-12-23T03:33:43.902Z,0.90
2022-12-23T03:36:18.455Z,0.90
2022-12-23T03:38:46.574Z,0.90
2022-12-23T03:41:19.260Z,1.00
2022-12-23T03:43:55.132Z,1.10
2022-12-23T03:46:47.584Z,1.00
2022-12-23T03:49:26.185Z,1.10
2022-12-23T03:51:59.617Z,1.00
2022-12-23T03:54:55.657Z,1.00
2022-12-23T03:57:29.638Z,1.10
2022-12-23T03:59:57.349Z,1.00
2022-12-23T04:02:40.259Z,1.10
2022-12-23T04:05:26.943Z,1.10
2022-12-23T04:08:12.595Z,1.10
2022-12-23T04:10:39.842Z,1.20
2022-12-23T04:13:07.492Z,1.10
2022-12-23T04:15:40.598Z,1.20
2022-12-23T04:18:09.574Z,1.30
2022-12-23T04:20:38.560Z,1.30
2022-12-23T04:23:06.161Z,1.40
2022-12-23T04:25:33.362Z,1.50
2022-12-23T04:28:00.741Z,1.50
2022-12-23T04:30:33.521Z,1.70
2022-12-23T04:33:02.770Z,1.60
2022-12-23T04:35:30.619Z,1.60
2022-12-23T04:37:57.873Z,1.60
2022-12-23T04:40:25.093Z,1.70
2022-12-23T04:42:52.356Z,1.70
2022-12-23T04:45:19.734Z,1.80
2022-12-23T04:47:47.014Z,1.90
2022-12-23T04:50:16.251Z,2.00
2022-12-23T04:52:44.778Z,2.10
2022-12-23T04:55:12.582Z,2.00
2022-12-23T04:57:40.231Z,2.30
2022-12-23T05:00:08.212Z,2.20
2022-12-23T05:02:35.537Z,2.10
2022-12-23T05:05:03.253Z,2.00
2022-12-23T05:07:30.601Z,2.00
2022-12-23T05:10:02.143Z,2.10
2022-12-23T05:12:30.822Z,2.00
2022-12-23T05:14:57.961Z,2.00
2022-12-23T05:17:26.166Z,1.90
2022-12-23T05:19:53.328Z,2.10
2022-12-23T05:22:21.588Z,2.20
2022-12-23T05:24:48.873Z,2.10
2022-12-23T05:27:16.103Z,2.10
2022-12-23T05:29:43.391Z,2.00
2022-12-23T05:32:10.697Z,2.10
2022-12-23T05:34:37.961Z,2.30
2022-12-23T05:37:05.301Z,2.30
2022-12-23T05:39:32.468Z,2.10
2022-12-23T05:41:59.708Z,2.20
2022-12-23T05:44:26.926Z,2.20
2022-12-23T05:46:54.319Z,2.10
2022-12-23T05:49:22.636Z,2.30
2022-12-23T05:51:49.863Z,2.40
2022-12-23T05:54:17.009Z,2.30
2022-12-23T05:56:44.279Z,2.30
2022-12-23T05:59:11.569Z,2.40
2022-12-23T06:01:38.979Z,2.30
2022-12-23T06:04:06.408Z,2.40
2022-12-23T06:06:33.775Z,2.40
2022-12-23T06:09:01.245Z,2.30
2022-12-23T06:11:29.000Z,2.50
2022-12-23T06:13:56.312Z,2.50
2022-12-23T06:16:23.925Z,2.50
2022-12-23T06:18:56.016Z,2.60
2022-12-23T06:21:23.132Z,2.60
2022-12-23T06:23:50.301Z,2.60
2022-12-23T06:26:17.596Z,2.50
2022-12-23T06:28:44.754Z,2.40
2022-12-23T06:31:12.022Z,2.40
2022-12-23T06:33:39.211Z,2.40
2022-12-23T06:36:07.672Z,2.30
2022-12-23T06:38:35.238Z,2.20
2022-12-23T06:41:02.467Z,2.20
2022-12-23T06:43:29.751Z,2.20
2022-12-23T06:45:57.021Z,2.10
2022-12-23T06:48:24.149Z,2.10
2022-12-23T06:50:53.168Z,2.00
2022-12-23T06:53:20.322Z,2.00
2022-12-23T06:55:47.609Z,2.10
2022-12-23T06:58:16.040Z,2.10
2022-12-23T07:00:43.295Z,2.10
2022-12-23T07:03:10.824Z,2.00
2022-12-23T07:05:38.291Z,1.90
2022-12-23T07:08:06.252Z,2.00
2022-12-23T07:10:34.596Z,2.00
2022-12-23T07:13:02.439Z,2.00
2022-12-23T07:15:29.646Z,1.90
2022-12-23T07:17:56.821Z,1.90
2022-12-23T07:20:24.045Z,2.00
2022-12-23T07:22:53.903Z,2.00
2022-12-23T07:25:21.739Z,2.00
2022-12-23T07:27:54.355Z,2.00
2022-12-23T07:30:22.667Z,2.00
2022-12-23T07:32:51.001Z,2.10
2022-12-23T07:35:18.892Z,2.10
2022-12-23T07:37:46.165Z,2.10
2022-12-23T07:40:13.625Z,2.20
2022-12-23T07:42:46.071Z,2.20
2022-12-23T07:45:13.862Z,2.30
2022-12-23T07:47:41.119Z,2.20
2022-12-23T07:50:08.895Z,2.20
2022-12-23T07:52:36.338Z,2.30
2022-12-23T07:55:03.899Z,2.40
2022-12-23T07:57:37.804Z,2.50
2022-12-23T08:00:18.924Z,2.50
2022-12-23T08:02:49.512Z,2.60
2022-12-23T08:05:17.009Z,2.60
2022-12-23T08:07:45.415Z,2.60
2022-12-23T08:10:13.581Z,2.60
2022-12-23T08:12:40.712Z,2.60
2022-12-23T08:15:08.840Z,2.60
2022-12-23T08:17:36.075Z,2.60
2022-12-23T08:20:03.464Z,2.70
2022-12-23T08:22:32.047Z,2.70
2022-12-23T08:24:59.999Z,2.70
2022-12-23T08:27:27.220Z,2.80
2022-12-23T08:29:54.617Z,2.80
2022-12-23T08:32:21.817Z,2.80
2022-12-23T08:34:48.935Z,2.80
2022-12-23T08:37:16.848Z,2.80
2022-12-23T08:39:44.190Z,2.90
2022-12-23T08:42:11.339Z,2.90
2022-12-23T08:44:39.539Z,2.90
2022-12-23T08:47:06.830Z,2.80
2022-12-23T08:49:34.157Z,2.80
2022-12-23T08:52:01.699Z,2.90
2022-12-23T08:54:29.595Z,2.90
2022-12-23T08:56:56.849Z,2.90
2022-12-23T08:59:24.038Z,2.90
2022-12-23T09:01:51.476Z,2.80
2022-12-23T09:04:18.763Z,2.80
2022-12-23T09:06:45.989Z,2.80
2022-12-23T09:09:15.711Z,2.90
2022-12-23T09:11:43.839Z,2.90
2022-12-23T09:14:12.025Z,2.80
2022-12-23T09:16:39.876Z,2.80
2022-12-23T09:19:08.041Z,2.90
2022-12-23T09:21:35.361Z,3.00
2022-12-23T09:24:02.554Z,3.10
2022-12-23T09:26:32.141Z,3.20
2022-12-23T09:28:59.949Z,3.30
2022-12-23T09:31:34.086Z,3.30
2022-12-23T09:34:03.670Z,3.20
2022-12-23T09:36:30.756Z,3.20
2022-12-23T09:38:59.077Z,3.20
2022-12-23T09:41:53.653Z,3.20
2022-12-23T09:44:37.111Z,3.20
2022-12-23T09:47:09.956Z,3.30
2022-12-23T09:49:45.410Z,3.20
2022-12-23T09:52:16.004Z,3.30
2022-12-23T09:54:48.661Z,3.20
2022-12-23T09:57:24.932Z,3.20
2022-12-23T10:00:10.725Z,3.10
2022-12-23T10:02:59.889Z,3.20
2022-12-23T10:05:37.020Z,3.40
2022-12-23T10:08:26.528Z,3.50
2022-12-23T10:11:06.527Z,3.60
2022-12-23T10:13:43.867Z,3.50
2022-12-23T10:16:20.377Z,3.70
2022-12-23T10:19:14.134Z,3.60
2022-12-23T10:22:06.248Z,3.70
2022-12-23T10:24:44.648Z,3.80
2022-12-23T10:27:34.856Z,3.60
2022-12-23T10:30:51.512Z,3.60
2022-12-23T10:33:28.383Z,3.60
2022-12-23T10:36:05.528Z,3.60
2022-12-23T10:38:42.274Z,3.60
2022-12-23T10:41:26.183Z,3.60
2022-12-23T10:43:56.507Z,4.00
2022-12-23T10:46:46.410Z,4.20
2022-12-23T10:49:13.846Z,4.00
2022-12-23T10:52:01.767Z,3.90
2022-12-23T10:54:33.465Z,3.80
2022-12-23T10:57:01.960Z,3.80
2022-12-23T10:59:34.672Z,3.80
2022-12-23T11:02:13.021Z,3.90
2022-12-23T11:04:43.722Z,3.90
2022-12-23T11:07:43.327Z,3.90
2022-12-23T11:10:18.910Z,4.20
2022-12-23T11:12:50.013Z,4.40
2022-12-23T11:15:41.640Z,4.20
2022-12-23T11:18:11.926Z,4.00
2022-12-23T11:20:43.746Z,4.20
2022-12-23T11:23:40.542Z,4.10
2022-12-23T11:26:13.622Z,4.10
2022-12-23T11:28:52.691Z,4.10
2022-12-23T11:31:35.384Z,4.00
2022-12-23T11:34:14.881Z,4.00
2022-12-23T11:36:43.251Z,4.10
2022-12-23T11:39:10.486Z,4.50
2022-12-23T11:41:39.271Z,4.50
2022-12-23T11:44:20.708Z,4.40
2022-12-23T11:46:49.172Z,4.40
2022-12-23T11:49:24.071Z,4.40
2022-12-23T11:52:06.024Z,4.60
2022-12-23T11:54:34.641Z,4.80
2022-12-23T11:57:08.761Z,4.70
2022-12-23T11:59:42.886Z,4.90
2022-12-23T12:02:26.176Z,4.60
2022-12-23T12:05:31.171Z,4.50
2022-12-23T12:08:09.651Z,4.40
2022-12-23T12:10:39.413Z,4.40
2022-12-23T12:13:23.180Z,4.50
2022-12-23T12:16:01.101Z,4.60
2022-12-23T12:18:29.647Z,4.80
2022-12-23T12:21:05.804Z,4.90
2022-12-23T12:23:50.757Z,4.90
2022-12-23T12:26:37.930Z,4.80
2022-12-23T12:29:20.985Z,4.80
2022-12-23T12:31:51.535Z,4.90
2022-12-23T12:34:38.859Z,4.80
2022-12-23T12:37:24.672Z,4.80
2022-12-23T12:40:13.034Z,4.70
2022-12-23T12:42:49.103Z,5.00
2022-12-23T12:45:22.487Z,5.00
2022-12-23T12:48:28.388Z,4.70
2022-12-23T12:50:56.061Z,4.60
2022-12-23T12:53:24.909Z,4.50
2022-12-23T12:55:59.895Z,4.50
2022-12-23T12:58:27.270Z,4.40
2022-12-23T13:01:22.522Z,4.60
2022-12-23T13:04:14.598Z,4.50
2022-12-23T13:07:11.755Z,4.40
2022-12-23T13:10:12.302Z,4.50
2022-12-23T13:13:20.660Z,4.50
2022-12-23T13:16:08.166Z,4.40
2022-12-23T13:18:57.536Z,4.40
2022-12-23T13:21:33.733Z,4.30
2022-12-23T13:24:18.934Z,4.40
2022-12-23T13:26:55.344Z,4.40
2022-12-23T13:29:22.655Z,4.30
2022-12-23T13:32:22.115Z,4.50
2022-12-23T13:35:15.583Z,4.50
2022-12-23T13:37:50.380Z,4.40
2022-12-23T13:40:17.657Z,4.40
2022-12-23T13:42:52.740Z,4.50
2022-12-23T13:45:21.740Z,4.50
2022-12-23T13:48:06.893Z,4.50
2022-12-23T13:50:46.233Z,4.50
2022-12-23T13:53:25.441Z,4.60
2022-12-23T13:56:03.800Z,4.50
2022-12-23T13:58:32.529Z,4.50
2022-12-23T14:01:22.392Z,4.50
2022-12-23T14:03:51.113Z,4.50
2022-12-23T14:06:24.362Z,4.50
2022-12-23T14:08:54.262Z,4.50
2022-12-23T14:11:28.816Z,4.40
2022-12-23T14:14:00.632Z,4.40
2022-12-23T14:16:54.453Z,4.40
2022-12-23T14:19:43.575Z,4.30
2022-12-23T14:22:22.653Z,4.20
2022-12-23T14:25:05.173Z,4.20
2022-12-23T14:27:50.989Z,4.00
2022-12-23T14:30:24.022Z,3.80
2022-12-23T14:32:58.151Z,3.80
2022-12-23T14:35:48.986Z,3.80
2022-12-23T14:38:16.096Z,3.70
2022-12-23T14:40:43.198Z,3.50
2022-12-23T14:43:22.961Z,3.50
2022-12-23T14:45:51.664Z,3.50
2022-12-23T14:48:34.344Z,3.50
2022-12-23T14:51:09.158Z,3.40
2022-12-23T14:53:57.472Z,3.40
2022-12-23T14:56:39.886Z,3.40
2022-12-23T14:59:28.297Z,3.20
2022-12-23T15:02:00.958Z,3.20
2022-12-23T15:04:28.578Z,3.20
2022-12-23T15:07:18.293Z,3.20
2022-12-23T15:10:01.148Z,3.20
2022-12-23T15:12:35.141Z,3.20
2022-12-23T15:15:28.079Z,3.20
2022-12-23T15:18:02.817Z,3.20
2022-12-23T15:20:30.594Z,3.10
2022-12-23T15:23:02.281Z,3.10
2022-12-23T15:25:32.699Z,3.10
2022-12-23T15:28:02.958Z,3.10
2022-12-23T15:30:35.222Z,3.10
2022-12-23T15:33:34.896Z,2.90
2022-12-23T15:35:56.402Z,2.90
2022-12-23T15:38:29.352Z,2.90
2022-12-23T15:41:18.919Z,2.90
2022-12-23T15:43:46.207Z,2.90
2022-12-23T15:46:28.984Z,3.00
2022-12-23T15:48:58.913Z,3.00
2022-12-23T15:52:07.011Z,3.00
2022-12-23T15:54:30.438Z,3.00
2022-12-23T15:57:00.485Z,3.00
2022-12-23T15:59:48.976Z,3.00
2022-12-23T16:03:00.546Z,3.00
2022-12-23T16:05:32.035Z,3.00
2022-12-23T16:08:32.508Z,3.00
2022-12-23T16:11:20.806Z,3.10
2022-12-23T16:14:00.245Z,3.10
2022-12-23T16:16:43.248Z,3.00
2022-12-23T16:19:49.615Z,3.10
2022-12-23T16:22:33.347Z,3.00
2022-12-23T16:25:20.071Z,3.00
2022-12-23T16:27:56.845Z,3.00
2022-12-23T16:30:46.844Z,3.00
2022-12-23T16:33:19.892Z,3.00
2022-12-23T16:35:47.176Z,3.00
2022-12-23T16:38:17.536Z,2.90
2022-12-23T16:40:50.571Z,2.90
2022-12-23T16:43:20.608Z,2.90
2022-12-23T16:45:52.855Z,2.90
2022-12-23T16:48:29.999Z,2.80
2022-12-23T16:50:58.082Z,2.90
2022-12-23T16:53:25.336Z,2.90
2022-12-23T16:55:59.985Z,2.90
2022-12-23T16:58:28.156Z,2.90
2022-12-23T17:00:55.983Z,2.90
2022-12-23T17:03:23.497Z,2.90
2022-12-23T17:05:50.735Z,2.90
2022-12-23T17:08:18.006Z,3.00
2022-12-23T17:10:45.956Z,3.00
2022-12-23T17:13:16.700Z,3.00
2022-12-23T17:15:44.267Z,3.00
2022-12-23T17:18:17.603Z,3.00
2022-12-23T17:20:49.454Z,3.10
2022-12-23T17:23:27.310Z,3.10
2022-12-23T17:25:54.854Z,3.10
2022-12-23T17:28:22.989Z,3.10
2022-12-23T17:30:55.829Z,3.20
2022-12-23T17:33:28.196Z,3.20
2022-12-23T17:35:56.061Z,3.20
2022-12-23T17:38:24.150Z,3.20
2022-12-23T17:40:51.914Z,3.20
2022-12-23T17:43:19.453Z,3.20
2022-12-23T17:45:47.366Z,3.20
2022-12-23T17:48:20.784Z,3.30
2022-12-23T17:50:50.852Z,3.20
2022-12-23T17:53:19.647Z,3.30
2022-12-23T17:55:47.203Z,3.30
2022-12-23T17:58:14.506Z,3.40
2022-12-23T18:00:42.313Z,3.40
2022-12-23T18:03:23.507Z,3.30
2022-12-23T18:05:55.637Z,3.40
2022-12-23T18:08:28.590Z,3.30
2022-12-23T18:10:57.246Z,3.40
2022-12-23T18:13:24.539Z,3.40
2022-12-23T18:15:52.777Z,3.50
2022-12-23T18:18:35.604Z,3.40
2022-12-23T18:21:09.876Z,3.40
2022-12-23T18:23:37.643Z,3.40
2022-12-23T18:26:04.877Z,3.30
2022-12-23T18:28:32.170Z,3.40
2022-12-23T18:30:59.401Z,3.40
2022-12-23T18:33:28.993Z,3.40
2022-12-23T18:35:57.034Z,3.40
2022-12-23T18:38:24.335Z,3.40
2022-12-23T18:40:54.065Z,3.30
2022-12-23T18:43:24.102Z,3.40
2022-12-23T18:45:54.079Z,3.50
2022-12-23T18:48:22.173Z,3.30
2022-12-23T18:50:49.329Z,3.30
2022-12-23T18:53:23.843Z,3.50
2022-12-23T18:55:53.820Z,3.40
2022-12-23T18:58:21.938Z,3.40
2022-12-23T19:00:50.628Z,3.40
2022-12-23T19:03:28.162Z,3.50
2022-12-23T19:05:56.633Z,3.40
2022-12-23T19:08:27.530Z,3.40
2022-12-23T19:10:55.927Z,3.40
2022-12-23T19:13:23.418Z,3.40
2022-12-23T19:15:50.834Z,3.50
2022-12-23T19:18:20.853Z,3.40
2022-12-23T19:20:49.154Z,3.50
2022-12-23T19:23:16.543Z,3.50
2022-12-23T19:25:54.582Z,3.50
2022-12-23T19:28:23.035Z,3.50
2022-12-23T19:30:51.277Z,3.50
2022-12-23T19:33:18.576Z,3.50
2022-12-23T19:35:45.811Z,3.60
2022-12-23T19:38:13.102Z,3.60
2022-12-23T19:40:41.142Z,3.70
2022-12-23T19:43:09.353Z,3.60
2022-12-23T19:45:36.631Z,3.60
2022-12-23T19:48:03.926Z,3.60
2022-12-23T19:50:31.157Z,3.60
2022-12-23T19:52:58.413Z,3.60
2022-12-23T19:55:25.620Z,3.60
2022-12-23T19:57:52.716Z,3.60
2022-12-23T20:00:20.038Z,3.60
2022-12-23T20:02:47.188Z,3.60
2022-12-23T20:05:14.597Z,3.70
2022-12-23T20:07:41.854Z,3.70
2022-12-23T20:10:09.827Z,3.60
2022-12-23T20:12:37.230Z,3.60
2022-12-23T20:15:04.798Z,3.60
2022-12-23T20:17:32.004Z,3.70
2022-12-23T20:19:59.206Z,3.60
2022-12-23T20:22:26.373Z,3.80
2022-12-23T20:24:53.737Z,3.70
2022-12-23T20:27:26.043Z,3.80
2022-12-23T20:29:55.136Z,3.80
2022-12-23T20:32:22.209Z,3.80
2022-12-23T20:34:50.336Z,3.80
2022-12-23T20:37:18.604Z,3.80
2022-12-23T20:39:46.392Z,3.80
2022-12-23T20:42:13.573Z,3.90
2022-12-23T20:44:40.853Z,3.90
2022-12-23T20:47:08.363Z,3.80
2022-12-23T20:49:36.044Z,3.70
2022-12-23T20:52:03.955Z,3.70
2022-12-23T20:54:33.767Z,3.70
2022-12-23T20:57:02.774Z,3.70
2022-12-23T20:59:30.036Z,3.80
2022-12-23T21:01:59.465Z,3.80
2022-12-23T21:04:27.596Z,3.80
2022-12-23T21:06:55.397Z,3.80
2022-12-23T21:09:22.668Z,3.80
2022-12-23T21:11:51.211Z,3.80
2022-12-23T21:14:19.320Z,3.80
2022-12-23T21:16:46.774Z,3.80
2022-12-23T21:19:24.127Z,3.80
2022-12-23T21:21:54.090Z,3.90
2022-12-23T21:24:24.957Z,3.90
2022-12-23T21:26:56.748Z,3.90
2022-12-23T21:29:25.965Z,3.90
2022-12-23T21:31:53.307Z,3.90
2022-12-23T21:34:20.668Z,3.90
2022-12-23T21:36:47.968Z,3.90
2022-12-23T21:39:17.033Z,3.90
2022-12-23T21:41:44.425Z,4.00
2022-12-23T21:44:15.013Z,3.90
2022-12-23T21:46:42.645Z,3.90
2022-12-23T21:49:10.640Z,3.90
2022-12-23T21:51:40.736Z,4.00
2022-12-23T21:54:10.913Z,4.00
2022-12-23T21:56:42.111Z,4.00
2022-12-23T21:59:13.513Z,4.00
2022-12-23T22:01:42.047Z,4.00
2022-12-23T22:04:09.333Z,4.00
2022-12-23T22:06:40.590Z,4.00
2022-12-23T22:09:08.964Z,4.00
2022-12-23T22:11:37.496Z,4.10
2022-12-23T22:14:06.878Z,4.10
2022-12-23T22:16:35.563Z,4.00
2022-12-23T22:19:06.361Z,4.10
2022-12-23T22:21:34.775Z,4.10
2022-12-23T22:24:03.103Z,4.10
2022-12-23T22:26:33.092Z,4.10
2022-12-23T22:29:03.950Z,4.00
2022-12-23T22:31:47.199Z,4.10
2022-12-23T22:34:20.332Z,4.20
2022-12-23T22:36:48.754Z,4.20
2022-12-23T22:39:20.965Z,4.20
2022-12-23T22:41:50.255Z,4.10
2022-12-23T22:44:17.612Z,4.20
2022-12-23T22:46:45.218Z,4.10
2022-12-23T22:49:14.035Z,4.10
2022-12-23T22:51:42.988Z,4.10
2022-12-23T22:54:10.521Z,4.10
2022-12-23T22:56:37.811Z,4.00
2022-12-23T22:59:05.493Z,4.10
2022-12-23T23:01:35.903Z,4.10
2022-12-23T23:04:05.330Z,4.00
2022-12-23T23:06:37.996Z,4.10
2022-12-23T23:09:18.622Z,4.00
2022-12-23T23:11:47.103Z,3.90
2022-12-23T23:14:14.418Z,4.10
2022-12-23T23:16:42.817Z,4.00
2022-12-23T23:19:10.932Z,4.00
2022-12-23T23:21:38.191Z,3.90
2022-12-23T23:24:06.074Z,3.80
2022-12-23T23:26:33.314Z,3.80
2022-12-23T23:29:00.652Z,4.00
2022-12-23T23:31:44.517Z,4.00
2022-12-23T23:34:13.709Z,4.00
2022-12-23T23:36:42.299Z,3.90
2022-12-23T23:39:11.512Z,3.80
2022-12-23T23:41:38.783Z,3.80
2022-12-23T23:44:06.103Z,3.90
2022-12-23T23:46:34.402Z,3.80
2022-12-23T23:49:01.880Z,3.80
2022-12-23T23:51:29.257Z,3.90
2022-12-23T23:53:56.585Z,4.00
2022-12-23T23:56:26.217Z,4.10
2022-12-23T23:58:55.049Z,4.10
